createdAt,value
2023-01-08T00:01:16.600Z,4.60
2023-01-08T00:03:45.228Z,4.60
2023-01-08T00:06:15.633Z,4.50
2023-01-08T00:08:44.244Z,4.40
2023-01-08T00:11:13.009Z,4.40
2023-01-08T00:13:41.564Z,4.20
2023-01-08T00:16:13.894Z,4.10
2023-01-08T00:18:42.346Z,4.00
2023-01-08T00:21:10.759Z,3.90
2023-01-08T00:23:39.184Z,3.80
2023-01-08T00:26:10.434Z,3.80
2023-01-08T00:28:39.720Z,3.70
2023-01-08T00:31:09.236Z,3.80
2023-01-08T00:33:40.411Z,3.80
2023-01-08T00:36:10.128Z,3.70
2023-01-08T00:38:38.497Z,3.70
2023-01-08T00:41:07.378Z,3.70
2023-01-08T00:43:35.817Z,3.70
2023-01-08T00:46:04.224Z,3.70
2023-01-08T00:48:33.920Z,3.60
2023-01-08T00:51:04.199Z,3.60
2023-01-08T00:53:32.791Z,3.60
2023-01-08T00:56:02.570Z,3.50
2023-01-08T00:58:31.109Z,3.50
2023-01-08T01:00:59.579Z,3.50
2023-01-08T01:03:28.008Z,3.50
2023-01-08T01:06:03.734Z,3.50
2023-01-08T01:08:32.276Z,3.50
2023-01-08T01:11:00.469Z,3.50
2023-01-08T01:13:28.645Z,3.50
2023-01-08T01:16:00.332Z,3.50
2023-01-08T01:18:28.377Z,3.50
2023-01-08T01:20:56.930Z,3.40
2023-01-08T01:23:26.718Z,3.30
2023-01-08T01:25:55.263Z,3.30
2023-01-08T01:28:23.581Z,3.20
2023-01-08T01:30:56.313Z,3.10
2023-01-08T01:33:24.993Z,3.10
2023-01-08T01:36:01.478Z,3.10
2023-01-08T01:38:31.390Z,3.00
2023-01-08T01:41:00.086Z,3.00
2023-01-08T01:43:38.749Z,3.00
2023-01-08T01:46:21.307Z,2.90
2023-01-08T01:48:52.005Z,2.90
2023-01-08T01:51:21.572Z,2.80
2023-01-08T01:53:51.233Z,2.80
2023-01-08T01:56:19.447Z,2.80
2023-01-08T01:58:47.629Z,2.80
2023-01-08T02:01:15.999Z,2.80
2023-01-08T02:03:44.491Z,2.70
2023-01-08T02:06:21.318Z,2.70
2023-01-08T02:08:58.306Z,2.70
2023-01-08T02:11:32.544Z,2.70
2023-01-08T02:14:07.972Z,2.70
2023-01-08T02:16:41.402Z,2.70
2023-01-08T02:19:20.142Z,2.80
2023-01-08T02:22:02.209Z,2.80
2023-01-08T02:24:47.881Z,2.80
2023-01-08T02:27:19.358Z,2.70
2023-01-08T02:29:48.980Z,2.70
2023-01-08T02:32:18.014Z,2.70
2023-01-08T02:34:46.519Z,2.70
2023-01-08T02:37:15.338Z,2.70
2023-01-08T02:39:55.001Z,2.70
2023-01-08T02:42:34.419Z,2.70
2023-01-08T02:45:09.026Z,2.70
2023-01-08T02:47:42.582Z,2.70
2023-01-08T02:50:16.735Z,2.70
2023-01-08T02:52:53.717Z,2.70
2023-01-08T02:55:25.199Z,2.80
2023-01-08T02:57:55.111Z,2.80
2023-01-08T03:00:24.106Z,2.70
2023-01-08T03:02:59.138Z,2.70
2023-01-08T03:05:29.851Z,2.70
2023-01-08T03:07:58.334Z,2.60
2023-01-08T03:10:29.368Z,2.60
2023-01-08T03:13:02.852Z,2.70
2023-01-08T03:15:37.491Z,2.60
2023-01-08T03:18:10.419Z,2.70
2023-01-08T03:20:40.084Z,2.70
2023-01-08T03:23:11.163Z,2.70
2023-01-08T03:25:42.873Z,2.70
2023-01-08T03:28:15.164Z,2.70
2023-01-08T03:30:44.980Z,2.70
2023-01-08T03:33:15.927Z,2.80
2023-01-08T03:35:46.451Z,2.80
2023-01-08T03:38:18.649Z,2.90
2023-01-08T03:40:50.698Z,3.00
2023-01-08T03:43:20.518Z,3.00
2023-01-08T03:45:52.872Z,3.10
2023-01-08T03:48:22.476Z,3.20
2023-01-08T03:50:50.753Z,3.40
2023-01-08T03:53:18.956Z,3.50
2023-01-08T03:55:47.188Z,3.60
2023-01-08T03:58:15.761Z,3.70
2023-01-08T04:00:45.690Z,3.80
2023-01-08T04:03:13.932Z,3.90
2023-01-08T04:05:42.177Z,4.00
2023-01-08T04:08:10.432Z,4.00
2023-01-08T04:10:38.671Z,4.00
2023-01-08T04:13:06.902Z,3.90
2023-01-08T04:15:35.642Z,3.80
2023-01-08T04:18:05.501Z,3.70
2023-01-08T04:20:33.866Z,3.60
2023-01-08T04:23:02.091Z,3.50
2023-01-08T04:25:30.381Z,3.40
2023-01-08T04:27:58.585Z,3.30
2023-01-08T04:30:26.844Z,3.30
2023-01-08T04:32:55.021Z,3.40
2023-01-08T04:35:24.709Z,3.40
2023-01-08T04:37:52.931Z,3.50
2023-01-08T04:40:21.189Z,3.50
2023-01-08T04:42:49.461Z,3.50
2023-01-08T04:45:18.317Z,3.50
2023-01-08T04:47:46.607Z,3.60
2023-01-08T04:50:14.883Z,3.60
2023-01-08T04:52:44.538Z,3.50
2023-01-08T04:55:12.760Z,3.50
2023-01-08T04:57:40.995Z,3.50
2023-01-08T05:00:10.041Z,3.60
2023-01-08T05:02:39.765Z,3.60
2023-01-08T05:05:09.221Z,3.60
2023-01-08T05:07:37.444Z,3.60
2023-01-08T05:10:08.564Z,3.60
2023-01-08T05:12:36.819Z,3.60
2023-01-08T05:15:05.617Z,3.70
2023-01-08T05:17:33.874Z,3.70
2023-01-08T05:20:02.084Z,3.70
2023-01-08T05:22:30.252Z,3.70
2023-01-08T05:24:58.624Z,3.70
2023-01-08T05:27:30.236Z,3.70
2023-01-08T05:29:58.449Z,3.70
2023-01-08T05:32:26.663Z,3.70
2023-01-08T05:34:54.854Z,3.70
2023-01-08T05:37:23.088Z,3.60
2023-01-08T05:39:51.254Z,3.60
2023-01-08T05:42:19.443Z,3.60
2023-01-08T05:44:49.118Z,3.60
2023-01-08T05:47:17.280Z,3.60
2023-01-08T05:49:45.466Z,3.60
2023-01-08T05:52:13.727Z,3.70
2023-01-08T05:54:41.916Z,3.60
2023-01-08T05:57:10.099Z,3.50
2023-01-08T05:59:38.301Z,3.50
2023-01-08T06:02:09.422Z,3.40
2023-01-08T06:04:37.659Z,3.40
2023-01-08T06:07:05.982Z,3.30
2023-01-08T06:09:34.139Z,3.20
2023-01-08T06:12:02.376Z,3.20
2023-01-08T06:14:30.622Z,3.10
2023-01-08T06:16:58.811Z,3.10
2023-01-08T06:19:28.431Z,3.10
2023-01-08T06:21:56.839Z,3.20
2023-01-08T06:24:25.126Z,3.20
2023-01-08T06:26:53.308Z,3.20
2023-01-08T06:29:21.806Z,3.30
2023-01-08T06:31:50.103Z,3.30
2023-01-08T06:34:18.281Z,3.40
2023-01-08T06:36:47.883Z,3.40
2023-01-08T06:39:16.219Z,3.40
2023-01-08T06:41:44.512Z,3.40
2023-01-08T06:44:13.193Z,3.40
2023-01-08T06:46:41.552Z,3.50
2023-01-08T06:49:10.454Z,3.50
2023-01-08T06:51:38.927Z,3.60
2023-01-08T06:54:08.791Z,3.60
2023-01-08T06:56:52.318Z,3.60
2023-01-08T06:59:21.008Z,3.60
2023-01-08T07:01:49.875Z,3.60
2023-01-08T07:04:18.443Z,3.70
2023-01-08T07:06:46.701Z,3.70
2023-01-08T07:09:16.589Z,3.70
2023-01-08T07:11:44.893Z,3.70
2023-01-08T07:14:13.266Z,3.80
2023-01-08T07:16:41.519Z,3.80
2023-01-08T07:19:09.686Z,3.80
2023-01-08T07:21:38.014Z,3.90
2023-01-08T07:24:07.629Z,3.90
2023-01-08T07:26:39.625Z,4.00
2023-01-08T07:29:07.991Z,4.00
2023-01-08T07:31:36.330Z,4.10
2023-01-08T07:34:04.637Z,4.10
2023-01-08T07:36:32.938Z,4.10
2023-01-08T07:39:01.181Z,4.20
2023-01-08T07:41:29.456Z,4.20
2023-01-08T07:43:59.044Z,4.30
2023-01-08T07:46:27.296Z,4.30
2023-01-08T07:48:56.919Z,4.40
2023-01-08T07:51:25.389Z,4.40
2023-01-08T07:53:56.214Z,4.40
2023-01-08T07:56:25.824Z,4.50
2023-01-08T07:58:54.176Z,4.50
2023-01-08T08:01:24.191Z,4.50
2023-01-08T08:03:52.462Z,4.60
2023-01-08T08:06:20.783Z,4.60
2023-01-08T08:08:49.086Z,4.70
2023-01-08T08:11:17.321Z,4.60
2023-01-08T08:13:47.515Z,4.70
2023-01-08T08:16:15.849Z,4.70
2023-01-08T08:18:45.489Z,4.70
2023-01-08T08:21:13.762Z,4.80
2023-01-08T08:23:41.941Z,4.80
2023-01-08T08:26:10.260Z,4.80
2023-01-08T08:28:38.503Z,4.90
2023-01-08T08:31:07.031Z,5.00
2023-01-08T08:33:35.615Z,5.10
2023-01-08T08:36:05.603Z,5.20
2023-01-08T08:38:33.943Z,5.30
2023-01-08T08:41:02.157Z,5.50
2023-01-08T08:43:30.350Z,5.60
2023-01-08T08:45:58.590Z,5.70
2023-01-08T08:48:27.066Z,5.80
2023-01-08T08:50:55.406Z,5.90
2023-01-08T08:53:26.984Z,6.00
2023-01-08T08:55:55.946Z,6.10
2023-01-08T08:58:24.178Z,6.20
2023-01-08T09:00:52.348Z,6.20
2023-01-08T09:03:20.695Z,6.20
2023-01-08T09:05:49.049Z,6.20
2023-01-08T09:08:17.364Z,6.20
2023-01-08T09:10:47.004Z,6.30
2023-01-08T09:13:15.239Z,6.30
2023-01-08T09:15:43.710Z,6.30
2023-01-08T09:18:12.059Z,6.40
2023-01-08T09:20:40.456Z,6.40
2023-01-08T09:23:08.833Z,6.50
2023-01-08T09:25:37.085Z,6.50
2023-01-08T09:28:08.602Z,6.50
2023-01-08T09:30:37.212Z,6.40
2023-01-08T09:33:06.689Z,6.40
2023-01-08T09:35:35.482Z,6.40
2023-01-08T09:38:03.864Z,6.40
2023-01-08T09:40:36.557Z,6.40
2023-01-08T09:43:07.191Z,6.50
2023-01-08T09:45:38.406Z,6.50
2023-01-08T09:48:12.753Z,6.60
2023-01-08T09:50:41.305Z,6.80
2023-01-08T09:53:14.255Z,6.80
2023-01-08T09:55:43.180Z,7.00
2023-01-08T09:58:23.373Z,7.10
2023-01-08T10:00:52.516Z,7.20
2023-01-08T10:03:20.771Z,7.30
2023-01-08T10:05:48.969Z,7.20
2023-01-08T10:08:17.165Z,7.20
2023-01-08T10:10:46.708Z,7.20
2023-01-08T10:13:17.324Z,7.10
2023-01-08T10:15:45.611Z,7.10
2023-01-08T10:18:16.664Z,7.20
2023-01-08T10:20:44.831Z,7.20
2023-01-08T10:23:15.332Z,7.20
2023-01-08T10:25:52.489Z,7.20
2023-01-08T10:28:24.226Z,7.20
2023-01-08T10:30:53.045Z,7.20
2023-01-08T10:33:25.425Z,7.20
2023-01-08T10:35:58.690Z,7.10
2023-01-08T10:38:33.228Z,7.20
2023-01-08T10:41:04.797Z,7.20
2023-01-08T10:43:37.937Z,7.20
2023-01-08T10:46:08.918Z,7.30
2023-01-08T10:48:40.327Z,7.30
2023-01-08T10:51:15.330Z,7.30
2023-01-08T10:53:43.807Z,7.30
2023-01-08T10:56:21.119Z,7.30
2023-01-08T10:58:51.560Z,7.40
2023-01-08T11:01:23.512Z,7.40
2023-01-08T11:03:53.253Z,7.40
2023-01-08T11:06:23.800Z,7.40
2023-01-08T11:08:54.245Z,7.30
2023-01-08T11:11:23.137Z,7.40
2023-01-08T11:14:01.124Z,7.40
2023-01-08T11:16:34.665Z,7.40
2023-01-08T11:19:03.041Z,7.30
2023-01-08T11:21:33.215Z,7.30
2023-01-08T11:24:13.241Z,7.40
2023-01-08T11:26:45.516Z,7.40
2023-01-08T11:29:18.458Z,7.30
2023-01-08T11:31:53.927Z,7.30
2023-01-08T11:34:28.535Z,7.30
2023-01-08T11:37:04.605Z,7.30
2023-01-08T11:39:35.313Z,7.40
2023-01-08T11:42:29.014Z,7.40
2023-01-08T11:45:10.911Z,7.40
2023-01-08T11:47:45.457Z,7.40
2023-01-08T11:50:22.162Z,7.40
2023-01-08T11:53:06.177Z,7.30
2023-01-08T11:55:47.466Z,7.20
2023-01-08T11:58:24.630Z,7.10
2023-01-08T12:01:20.860Z,7.00
2023-01-08T12:03:55.964Z,7.00
2023-01-08T12:06:36.877Z,6.90
2023-01-08T12:09:17.438Z,6.90
2023-01-08T12:11:52.895Z,7.00
2023-01-08T12:14:39.433Z,7.10
2023-01-08T12:17:23.521Z,7.20
2023-01-08T12:20:03.139Z,7.20
2023-01-08T12:22:41.180Z,7.20
2023-01-08T12:25:23.879Z,7.20
2023-01-08T12:28:03.679Z,7.20
2023-01-08T12:30:46.751Z,7.20
2023-01-08T12:33:24.253Z,7.20
2023-01-08T12:35:55.574Z,7.20
2023-01-08T12:38:29.095Z,7.30
2023-01-08T12:40:59.508Z,7.30
2023-01-08T12:43:32.134Z,7.40
2023-01-08T12:46:02.919Z,7.50
2023-01-08T12:48:36.633Z,7.70
2023-01-08T12:51:10.103Z,7.80
2023-01-08T12:53:47.389Z,7.90
2023-01-08T12:56:19.241Z,8.10
2023-01-08T12:59:01.140Z,8.20
2023-01-08T13:01:34.013Z,8.30
2023-01-08T13:04:06.185Z,8.30
2023-01-08T13:06:34.677Z,8.30
2023-01-08T13:09:03.367Z,8.30
2023-01-08T13:11:35.061Z,8.30
2023-01-08T13:14:04.156Z,8.20
2023-01-08T13:16:36.010Z,8.00
2023-01-08T13:19:06.749Z,8.00
2023-01-08T13:21:38.311Z,8.00
2023-01-08T13:24:23.213Z,8.10
2023-01-08T13:26:51.532Z,8.10
2023-01-08T13:29:37.862Z,8.00
2023-01-08T13:32:23.652Z,7.90
2023-01-08T13:35:03.228Z,7.90
2023-01-08T13:37:31.481Z,8.00
2023-01-08T13:39:59.664Z,7.90
2023-01-08T13:42:28.876Z,7.90
2023-01-08T13:45:02.213Z,8.00
2023-01-08T13:47:34.005Z,8.10
2023-01-08T13:50:05.487Z,8.10
2023-01-08T13:52:38.618Z,8.10
2023-01-08T13:55:16.092Z,8.10
2023-01-08T13:57:47.710Z,8.10
2023-01-08T14:00:23.610Z,8.10
2023-01-08T14:02:51.915Z,8.20
2023-01-08T14:05:28.147Z,8.30
2023-01-08T14:07:56.721Z,8.30
2023-01-08T14:10:26.311Z,8.40
2023-01-08T14:12:54.890Z,8.40
2023-01-08T14:15:26.898Z,8.50
2023-01-08T14:17:56.929Z,8.60
2023-01-08T14:20:36.903Z,8.70
2023-01-08T14:23:12.425Z,8.70
2023-01-08T14:25:42.225Z,8.60
2023-01-08T14:28:17.708Z,8.70
2023-01-08T14:30:50.080Z,8.70
2023-01-08T14:33:20.522Z,8.70
2023-01-08T14:35:51.510Z,8.60
2023-01-08T14:38:19.946Z,8.50
2023-01-08T14:40:52.274Z,8.50
2023-01-08T14:43:22.123Z,8.50
2023-01-08T14:45:53.767Z,8.50
2023-01-08T14:48:25.706Z,8.50
2023-01-08T14:51:04.309Z,8.50
2023-01-08T14:53:35.437Z,8.50
2023-01-08T14:56:05.799Z,8.40
2023-01-08T14:58:38.167Z,8.40
2023-01-08T15:01:10.695Z,8.40
2023-01-08T15:03:41.535Z,8.40
2023-01-08T15:06:11.989Z,8.40
2023-01-08T15:08:41.553Z,8.50
2023-01-08T15:11:22.105Z,8.40
2023-01-08T15:13:51.408Z,8.40
2023-01-08T15:16:27.580Z,8.30
2023-01-08T15:19:02.644Z,8.30
2023-01-08T15:21:32.761Z,8.20
2023-01-08T15:24:02.354Z,8.10
2023-01-08T15:26:30.771Z,8.00
2023-01-08T15:29:00.946Z,7.90
2023-01-08T15:31:31.557Z,7.80
2023-01-08T15:34:01.380Z,7.80
2023-01-08T15:36:31.217Z,7.70
2023-01-08T15:38:59.436Z,7.70
2023-01-08T15:41:52.427Z,7.60
2023-01-08T15:44:20.770Z,7.50
2023-01-08T15:46:49.092Z,7.30
2023-01-08T15:49:17.383Z,7.20
2023-01-08T15:51:49.745Z,7.00
2023-01-08T15:54:18.247Z,7.00
2023-01-08T15:56:46.493Z,7.00
2023-01-08T15:59:14.745Z,6.90
2023-01-08T16:01:43.264Z,6.80
2023-01-08T16:04:11.606Z,6.80
2023-01-08T16:06:41.911Z,6.70
2023-01-08T16:09:11.680Z,6.70
2023-01-08T16:11:39.927Z,6.60
2023-01-08T16:14:08.166Z,6.60
2023-01-08T16:16:36.388Z,6.60
2023-01-08T16:19:04.705Z,6.60
2023-01-08T16:21:33.037Z,6.60
2023-01-08T16:24:01.222Z,6.60
2023-01-08T16:26:31.120Z,6.60
2023-01-08T16:28:59.381Z,6.60
2023-01-08T16:31:27.643Z,6.60
2023-01-08T16:33:55.879Z,6.60
2023-01-08T16:36:24.068Z,6.60
2023-01-08T16:38:52.531Z,6.60
2023-01-08T16:41:20.757Z,6.60
2023-01-08T16:43:50.453Z,6.70
2023-01-08T16:46:19.769Z,6.70
2023-01-08T16:48:48.660Z,6.70
2023-01-08T16:51:17.295Z,6.60
2023-01-08T16:53:45.562Z,6.60
2023-01-08T16:56:13.757Z,6.60
2023-01-08T16:58:42.016Z,6.60
2023-01-08T17:01:12.855Z,6.60
2023-01-08T17:03:41.834Z,6.60
2023-01-08T17:06:12.623Z,6.70
2023-01-08T17:08:42.018Z,6.70
2023-01-08T17:11:11.714Z,6.70
2023-01-08T17:13:40.319Z,6.70
2023-01-08T17:16:12.660Z,6.70
2023-01-08T17:18:41.469Z,6.70
2023-01-08T17:21:12.548Z,6.70
2023-01-08T17:23:41.387Z,6.70
2023-01-08T17:26:12.428Z,6.70
2023-01-08T17:28:40.831Z,6.70
2023-01-08T17:31:12.722Z,6.70
2023-01-08T17:33:41.409Z,6.70
2023-01-08T17:36:13.842Z,6.70
2023-01-08T17:38:43.164Z,6.70
2023-01-08T17:41:32.468Z,6.70
2023-01-08T17:44:00.972Z,6.70
2023-01-08T17:46:30.913Z,6.70
2023-01-08T17:48:59.198Z,6.70
2023-01-08T17:51:27.536Z,6.70
2023-01-08T17:53:57.823Z,6.70
2023-01-08T17:56:26.348Z,6.70
2023-01-08T17:58:54.998Z,6.70
2023-01-08T18:01:23.603Z,6.70
2023-01-08T18:03:53.879Z,6.70
2023-01-08T18:06:22.646Z,6.70
2023-01-08T18:08:51.021Z,6.70
2023-01-08T18:11:19.311Z,6.70
2023-01-08T18:13:47.538Z,6.70
2023-01-08T18:16:16.477Z,6.70
2023-01-08T18:18:44.893Z,6.70
2023-01-08T18:21:14.628Z,6.70
2023-01-08T18:23:44.199Z,6.70
2023-01-08T18:26:12.765Z,6.70
2023-01-08T18:28:41.112Z,6.70
2023-01-08T18:31:10.815Z,6.60
2023-01-08T18:33:39.298Z,6.60
2023-01-08T18:36:10.490Z,6.60
2023-01-08T18:38:43.049Z,6.60
2023-01-08T18:41:33.726Z,6.60
2023-01-08T18:44:02.066Z,6.60
2023-01-08T18:46:30.775Z,6.60
2023-01-08T18:48:59.062Z,6.50
2023-01-08T18:51:27.632Z,6.50
2023-01-08T18:53:57.562Z,6.50
2023-01-08T18:56:34.621Z,6.60
2023-01-08T18:59:03.852Z,6.60
2023-01-08T19:01:32.207Z,6.60
2023-01-08T19:04:00.674Z,6.60
2023-01-08T19:06:29.224Z,6.60
2023-01-08T19:09:00.574Z,6.70
2023-01-08T19:11:28.985Z,6.70
2023-01-08T19:13:57.979Z,6.70
2023-01-08T19:16:26.856Z,6.70
2023-01-08T19:18:55.223Z,6.70
2023-01-08T19:21:23.961Z,6.70
2023-01-08T19:23:52.356Z,6.70
2023-01-08T19:26:22.181Z,6.70
2023-01-08T19:28:50.538Z,6.80
2023-01-08T19:31:19.861Z,6.70
2023-01-08T19:33:48.233Z,6.70
2023-01-08T19:36:18.695Z,6.70
2023-01-08T19:38:47.174Z,6.70
2023-01-08T19:41:32.969Z,6.70
2023-01-08T19:44:03.001Z,6.70
2023-01-08T19:46:32.216Z,6.70
2023-01-08T19:49:01.877Z,6.70
2023-01-08T19:51:31.853Z,6.70
2023-01-08T19:54:01.305Z,6.70
2023-01-08T19:56:30.398Z,6.60
2023-01-08T19:58:59.025Z,6.60
2023-01-08T20:01:29.800Z,6.70
2023-01-08T20:03:58.258Z,6.70
2023-01-08T20:06:28.192Z,6.80
2023-01-08T20:09:00.130Z,6.70
2023-01-08T20:11:29.301Z,6.70
2023-01-08T20:14:00.557Z,6.70
2023-01-08T20:16:30.883Z,6.70
2023-01-08T20:19:02.127Z,6.70
2023-01-08T20:21:30.736Z,6.80
2023-01-08T20:24:00.606Z,6.60
2023-01-08T20:26:30.191Z,6.60
2023-01-08T20:28:59.495Z,6.60
2023-01-08T20:31:31.298Z,6.60
2023-01-08T20:34:00.830Z,6.70
2023-01-08T20:36:30.967Z,6.70
2023-01-08T20:39:01.101Z,6.70
2023-01-08T20:41:30.138Z,6.70
2023-01-08T20:43:58.394Z,6.60
2023-01-08T20:46:29.547Z,6.70
2023-01-08T20:49:03.566Z,6.70
2023-01-08T20:51:32.316Z,6.50
2023-01-08T20:54:02.446Z,6.40
2023-01-08T20:56:30.742Z,6.40
2023-01-08T20:58:59.270Z,6.30
2023-01-08T21:01:31.319Z,6.30
2023-01-08T21:04:01.933Z,6.20
2023-01-08T21:06:32.655Z,6.20
2023-01-08T21:09:03.203Z,6.20
2023-01-08T21:11:31.925Z,6.30
2023-01-08T21:14:00.239Z,6.30
2023-01-08T21:16:30.226Z,6.20
2023-01-08T21:19:00.523Z,6.30
2023-01-08T21:21:32.259Z,6.30
2023-01-08T21:24:04.235Z,6.30
2023-01-08T21:26:33.447Z,6.20
2023-01-08T21:29:03.009Z,6.20
2023-01-08T21:31:31.620Z,6.20
2023-01-08T21:34:03.149Z,6.20
2023-01-08T21:36:33.188Z,6.10
2023-01-08T21:39:02.966Z,6.10
2023-01-08T21:41:49.499Z,6.10
2023-01-08T21:44:37.340Z,6.10
2023-01-08T21:47:07.898Z,6.00
2023-01-08T21:49:37.759Z,6.00
2023-01-08T21:52:24.078Z,5.90
2023-01-08T21:54:52.819Z,6.00
2023-01-08T21:57:21.629Z,6.00
2023-01-08T21:59:50.831Z,6.00
2023-01-08T22:02:21.799Z,5.90
2023-01-08T22:04:54.567Z,5.90
2023-01-08T22:07:23.183Z,5.80
2023-01-08T22:09:51.581Z,5.80
2023-01-08T22:12:20.565Z,5.90
2023-01-08T22:14:49.379Z,5.90
2023-01-08T22:17:17.721Z,5.90
2023-01-08T22:19:45.975Z,5.90
2023-01-08T22:22:15.836Z,5.90
2023-01-08T22:24:44.210Z,6.00
2023-01-08T22:27:12.569Z,6.00
2023-01-08T22:29:41.202Z,6.10
2023-01-08T22:32:09.627Z,6.10
2023-01-08T22:34:38.119Z,6.10
2023-01-08T22:37:06.398Z,6.10
2023-01-08T22:39:36.183Z,6.10
2023-01-08T22:42:04.749Z,6.00
2023-01-08T22:44:33.243Z,6.10
2023-01-08T22:47:03.199Z,6.10
2023-01-08T22:49:31.542Z,6.10
2023-01-08T22:52:00.328Z,6.00
2023-01-08T22:54:28.854Z,6.10
2023-01-08T22:56:58.564Z,6.10
2023-01-08T22:59:26.891Z,6.10
2023-01-08T23:01:55.215Z,6.20
2023-01-08T23:04:23.715Z,6.20
2023-01-08T23:06:52.092Z,6.20
2023-01-08T23:09:20.433Z,6.10
2023-01-08T23:11:48.845Z,6.10
2023-01-08T23:14:18.700Z,6.00
2023-01-08T23:16:47.222Z,6.00
2023-01-08T23:19:15.610Z,6.10
2023-01-08T23:21:43.885Z,6.10
2023-01-08T23:24:14.026Z,6.20
2023-01-08T23:26:43.050Z,6.20
2023-01-08T23:29:11.764Z,6.20
2023-01-08T23:31:44.113Z,6.20
2023-01-08T23:34:12.597Z,6.20
2023-01-08T23:36:41.035Z,6.20
2023-01-08T23:39:09.455Z,6.20
2023-01-08T23:41:39.369Z,6.20
2023-01-08T23:44:09.862Z,6.20
2023-01-08T23:46:38.509Z,6.20
2023-01-08T23:49:08.255Z,6.20
2023-01-08T23:51:37.089Z,6.20
2023-01-08T23:54:05.581Z,6.10
2023-01-08T23:56:33.892Z,6.10
2023-01-08T23:59:02.455Z,6.10
